This is the latest recevied weather packets stored in our database for station/object K7CTM. If no packets are shown the sender has not sent any weather packets the latest 10 day(s).
| Time | Temp. | Humidity | Pressure | Rain* | Wind** | Luminosity | Snow |
|---|---|---|---|---|---|---|---|
| 1777709354 | 5.56° C | 52% | 1027.5 hPa | 0 mm | - | 0 W/m² | - |
| 1777709051 | 5.56° C | 51% | 1027.8 hPa | 0 mm | - | 0 W/m² | - |
| 1777708748 | 5.56° C | 51% | 1027.8 hPa | 0 mm | - | 0 W/m² | - |
| 1777708445 | 5.56° C | 51% | 1027.8 hPa | 0 mm | - | 0 W/m² | - |
| 1777708144 | 5.56° C | 52% | 1027.7 hPa | 0 mm | - | 0 W/m² | - |
| 1777707841 | 5° C | 55% | 1027.8 hPa | 0 mm | - | 0 W/m² | - |
| 1777707536 | 5° C | 55% | 1027.9 hPa | 0 mm | - | 0 W/m² | - |
| 1777707233 | 5.56° C | 52% | 1027.7 hPa | 0 mm | - | 0 W/m² | - |
| 1777706931 | 6.11° C | 51% | 1027.7 hPa | 0 mm | - | 0 W/m² | - |
| 1777706628 | 6.11° C | 50% | 1027.9 hPa | 0 mm | - | 0 W/m² | - |
| 1777706326 | 6.11° C | 49% | 1027.8 hPa | 0 mm | - | 0 W/m² | - |
| 1777706023 | 6.67° C | 48% | 1027.9 hPa | 0 mm | - | 0 W/m² | - |
| 1777705721 | 7.22° C | 46% | 1027.9 hPa | 0 mm | - | 0 W/m² | - |
| 1777705419 | 7.78° C | 44% | 1027.7 hPa | 0 mm | - | 0 W/m² | - |
| 1777705117 | 8.33° C | 41% | 1027.8 hPa | 0 mm | - | 0 W/m² | - |
| 1777704815 | 7.78° C | 42% | 1027.8 hPa | 0 mm | - | 0 W/m² | - |
| 1777704513 | 8.33° C | 42% | 1027.8 hPa | 0 mm | - | 0 W/m² | - |
| 1777704211 | 8.89° C | 41% | 1027.7 hPa | 0 mm | - | 0 W/m² | - |
| 1777703908 | 8.33° C | 41% | 1027.7 hPa | 0 mm | - | 0 W/m² | - |
| 1777703605 | 8.89° C | 41% | 1027.8 hPa | 0 mm | - | 0 W/m² | - |
| 1777703302 | 8.89° C | 42% | 1027.9 hPa | 0 mm | - | 0 W/m² | - |
| 1777703000 | 8.33° C | 42% | 1027.8 hPa | 0 mm | - | 0 W/m² | - |
| 1777702699 | 8.33° C | 42% | 1027.9 hPa | 0 mm | - | 0 W/m² | - |
| 1777702396 | 8.89° C | 41% | 1027.9 hPa | 0 mm | - | 0 W/m² | - |
| 1777702091 | 8.89° C | 41% | 1027.9 hPa | 0 mm | - | 0 W/m² | - |
* Rain latest hour (hover to see other rain measurements)
** Current wind speed in m/s (hover to see current wind gust speed)